sensor_id;sensor_type;location;lat;lon;timestamp;P1;durP1;ratioP1;P2;durP2;ratioP2
42478;SDS011;28110;47.080;9.476;2023-02-21T00:00:45;0.95;;;0.65;;
42478;SDS011;28110;47.080;9.476;2023-02-21T00:03:32;2.47;;;0.80;;
42478;SDS011;28110;47.080;9.476;2023-02-21T00:06:16;1.70;;;0.75;;
42478;SDS011;28110;47.080;9.476;2023-02-21T00:09:00;1.85;;;0.77;;
42478;SDS011;28110;47.080;9.476;2023-02-21T00:11:44;1.27;;;0.70;;
42478;SDS011;28110;47.080;9.476;2023-02-21T00:14:29;0.82;;;0.60;;
42478;SDS011;28110;47.080;9.476;2023-02-21T00:17:13;1.95;;;0.80;;
42478;SDS011;28110;47.080;9.476;2023-02-21T00:19:58;2.40;;;0.63;;
42478;SDS011;28110;47.080;9.476;2023-02-21T00:22:43;1.75;;;0.73;;
42478;SDS011;28110;47.080;9.476;2023-02-21T00:25:27;5.25;;;0.70;;
42478;SDS011;28110;47.080;9.476;2023-02-21T00:28:11;1.80;;;0.60;;
42478;SDS011;28110;47.080;9.476;2023-02-21T00:30:56;3.60;;;0.60;;
42478;SDS011;28110;47.080;9.476;2023-02-21T00:33:40;1.30;;;0.70;;
42478;SDS011;28110;47.080;9.476;2023-02-21T00:36:24;3.42;;;1.10;;
42478;SDS011;28110;47.080;9.476;2023-02-21T00:39:08;2.28;;;0.93;;
42478;SDS011;28110;47.080;9.476;2023-02-21T00:41:52;1.73;;;0.75;;
42478;SDS011;28110;47.080;9.476;2023-02-21T00:44:36;3.15;;;0.93;;
42478;SDS011;28110;47.080;9.476;2023-02-21T00:47:20;1.15;;;0.52;;
42478;SDS011;28110;47.080;9.476;2023-02-21T00:50:05;1.65;;;0.52;;
42478;SDS011;28110;47.080;9.476;2023-02-21T00:52:49;1.33;;;0.60;;
42478;SDS011;28110;47.080;9.476;2023-02-21T00:55:33;2.15;;;0.60;;
42478;SDS011;28110;47.080;9.476;2023-02-21T00:58:19;1.27;;;0.75;;
42478;SDS011;28110;47.080;9.476;2023-02-21T01:01:04;2.70;;;0.60;;
42478;SDS011;28110;47.080;9.476;2023-02-21T01:03:49;2.65;;;0.52;;
42478;SDS011;28110;47.080;9.476;2023-02-21T01:06:33;0.63;;;0.50;;
42478;SDS011;28110;47.080;9.476;2023-02-21T01:09:17;0.93;;;0.50;;
42478;SDS011;28110;47.080;9.476;2023-02-21T01:12:01;3.65;;;0.65;;
42478;SDS011;28110;47.080;9.476;2023-02-21T01:14:45;0.88;;;0.50;;
42478;SDS011;28110;47.080;9.476;2023-02-21T01:17:30;1.20;;;0.70;;
42478;SDS011;28110;47.080;9.476;2023-02-21T01:20:14;1.15;;;0.60;;
42478;SDS011;28110;47.080;9.476;2023-02-21T01:22:58;0.75;;;0.50;;
42478;SDS011;28110;47.080;9.476;2023-02-21T01:25:42;2.78;;;0.70;;
42478;SDS011;28110;47.080;9.476;2023-02-21T01:28:26;1.08;;;0.60;;
42478;SDS011;28110;47.080;9.476;2023-02-21T01:31:10;1.65;;;0.50;;
42478;SDS011;28110;47.080;9.476;2023-02-21T01:33:58;4.38;;;0.60;;
42478;SDS011;28110;47.080;9.476;2023-02-21T01:36:43;1.42;;;0.65;;
42478;SDS011;28110;47.080;9.476;2023-02-21T01:39:27;0.82;;;0.57;;
42478;SDS011;28110;47.080;9.476;2023-02-21T01:42:11;2.13;;;0.55;;
42478;SDS011;28110;47.080;9.476;2023-02-21T01:48:11;2.03;;;0.70;;
42478;SDS011;28110;47.080;9.476;2023-02-21T01:50:59;0.60;;;0.60;;
42478;SDS011;28110;47.080;9.476;2023-02-21T01:53:46;7.80;;;0.98;;
42478;SDS011;28110;47.080;9.476;2023-02-21T01:56:30;3.15;;;0.70;;
42478;SDS011;28110;47.080;9.476;2023-02-21T01:59:15;0.95;;;0.60;;
42478;SDS011;28110;47.080;9.476;2023-02-21T02:02:02;0.82;;;0.60;;
42478;SDS011;28110;47.080;9.476;2023-02-21T02:05:00;0.60;;;0.50;;
42478;SDS011;28110;47.080;9.476;2023-02-21T02:07:46;2.03;;;0.50;;
42478;SDS011;28110;47.080;9.476;2023-02-21T02:10:31;2.40;;;0.63;;
42478;SDS011;28110;47.080;9.476;2023-02-21T02:13:59;1.33;;;0.65;;
42478;SDS011;28110;47.080;9.476;2023-02-21T02:16:18;1.50;;;0.60;;
42478;SDS011;28110;47.080;9.476;2023-02-21T02:35:14;1.48;;;0.60;;
42478;SDS011;28110;47.080;9.476;2023-02-21T02:38:05;1.63;;;0.52;;
42478;SDS011;28110;47.080;9.476;2023-02-21T02:43:32;1.27;;;0.60;;
42478;SDS011;28110;47.080;9.476;2023-02-21T02:46:21;1.33;;;0.60;;
42478;SDS011;28110;47.080;9.476;2023-02-21T02:51:28;0.75;;;0.60;;
42478;SDS011;28110;47.080;9.476;2023-02-21T02:53:56;1.40;;;0.52;;
42478;SDS011;28110;47.080;9.476;2023-02-21T02:56:22;0.93;;;0.57;;
42478;SDS011;28110;47.080;9.476;2023-02-21T02:58:51;3.23;;;0.60;;
42478;SDS011;28110;47.080;9.476;2023-02-21T03:06:51;0.80;;;0.50;;
42478;SDS011;28110;47.080;9.476;2023-02-21T03:09:25;0.82;;;0.40;;
42478;SDS011;28110;47.080;9.476;2023-02-21T03:14:57;2.72;;;0.60;;
42478;SDS011;28110;47.080;9.476;2023-02-21T03:17:25;1.63;;;1.15;;
42478;SDS011;28110;47.080;9.476;2023-02-21T03:19:54;2.20;;;0.93;;
42478;SDS011;28110;47.080;9.476;2023-02-21T03:22:23;1.52;;;0.50;;
42478;SDS011;28110;47.080;9.476;2023-02-21T03:24:52;0.68;;;0.40;;
42478;SDS011;28110;47.080;9.476;2023-02-21T03:27:19;1.27;;;0.60;;
42478;SDS011;28110;47.080;9.476;2023-02-21T03:29:47;0.95;;;0.60;;
42478;SDS011;28110;47.080;9.476;2023-02-21T03:32:16;1.47;;;0.40;;
42478;SDS011;28110;47.080;9.476;2023-02-21T03:34:45;1.30;;;0.80;;
42478;SDS011;28110;47.080;9.476;2023-02-21T03:37:28;1.20;;;0.70;;
42478;SDS011;28110;47.080;9.476;2023-02-21T03:39:56;1.23;;;0.60;;
42478;SDS011;28110;47.080;9.476;2023-02-21T03:42:22;2.65;;;0.40;;
42478;SDS011;28110;47.080;9.476;2023-02-21T03:44:47;2.53;;;0.50;;
42478;SDS011;28110;47.080;9.476;2023-02-21T03:47:13;0.90;;;0.50;;
42478;SDS011;28110;47.080;9.476;2023-02-21T03:49:38;0.63;;;0.50;;
42478;SDS011;28110;47.080;9.476;2023-02-21T03:52:04;1.40;;;0.60;;
42478;SDS011;28110;47.080;9.476;2023-02-21T03:54:29;3.07;;;0.60;;
42478;SDS011;28110;47.080;9.476;2023-02-21T03:56:55;1.23;;;0.50;;
42478;SDS011;28110;47.080;9.476;2023-02-21T03:59:20;1.47;;;0.60;;
42478;SDS011;28110;47.080;9.476;2023-02-21T04:01:46;1.70;;;0.57;;
42478;SDS011;28110;47.080;9.476;2023-02-21T04:04:12;1.17;;;0.60;;
42478;SDS011;28110;47.080;9.476;2023-02-21T04:06:37;3.13;;;0.80;;
42478;SDS011;28110;47.080;9.476;2023-02-21T04:09:03;1.67;;;0.77;;
42478;SDS011;28110;47.080;9.476;2023-02-21T04:11:29;2.58;;;0.60;;
42478;SDS011;28110;47.080;9.476;2023-02-21T04:13:55;2.90;;;0.60;;
42478;SDS011;28110;47.080;9.476;2023-02-21T04:16:20;2.40;;;0.67;;
42478;SDS011;28110;47.080;9.476;2023-02-21T04:18:46;0.60;;;0.47;;
42478;SDS011;28110;47.080;9.476;2023-02-21T04:21:14;1.27;;;0.47;;
42478;SDS011;28110;47.080;9.476;2023-02-21T04:23:41;1.57;;;0.57;;
42478;SDS011;28110;47.080;9.476;2023-02-21T04:26:06;1.58;;;0.60;;
42478;SDS011;28110;47.080;9.476;2023-02-21T04:28:32;1.07;;;0.60;;
42478;SDS011;28110;47.080;9.476;2023-02-21T04:30:57;1.27;;;0.53;;
42478;SDS011;28110;47.080;9.476;2023-02-21T04:33:23;1.02;;;0.50;;
42478;SDS011;28110;47.080;9.476;2023-02-21T04:35:48;3.43;;;0.70;;
42478;SDS011;28110;47.080;9.476;2023-02-21T04:38:14;1.30;;;0.40;;
42478;SDS011;28110;47.080;9.476;2023-02-21T04:40:40;1.33;;;0.50;;
42478;SDS011;28110;47.080;9.476;2023-02-21T04:43:06;1.90;;;0.63;;
42478;SDS011;28110;47.080;9.476;2023-02-21T04:45:31;2.95;;;0.80;;
42478;SDS011;28110;47.080;9.476;2023-02-21T04:47:57;0.87;;;0.50;;
42478;SDS011;28110;47.080;9.476;2023-02-21T04:50:22;2.58;;;0.45;;
42478;SDS011;28110;47.080;9.476;2023-02-21T04:52:48;3.23;;;0.60;;
42478;SDS011;28110;47.080;9.476;2023-02-21T04:55:14;1.33;;;0.50;;
42478;SDS011;28110;47.080;9.476;2023-02-21T04:57:40;0.90;;;0.50;;
42478;SDS011;28110;47.080;9.476;2023-02-21T05:00:05;2.42;;;0.63;;
42478;SDS011;28110;47.080;9.476;2023-02-21T05:02:32;1.67;;;0.63;;
42478;SDS011;28110;47.080;9.476;2023-02-21T05:04:58;1.13;;;0.60;;
42478;SDS011;28110;47.080;9.476;2023-02-21T05:07:23;0.45;;;0.40;;
42478;SDS011;28110;47.080;9.476;2023-02-21T05:09:49;1.00;;;0.43;;
42478;SDS011;28110;47.080;9.476;2023-02-21T05:12:15;2.10;;;0.70;;
42478;SDS011;28110;47.080;9.476;2023-02-21T05:14:40;0.90;;;0.40;;
42478;SDS011;28110;47.080;9.476;2023-02-21T05:17:07;1.40;;;0.90;;
42478;SDS011;28110;47.080;9.476;2023-02-21T05:19:32;1.93;;;0.70;;
42478;SDS011;28110;47.080;9.476;2023-02-21T05:21:59;1.90;;;0.70;;
42478;SDS011;28110;47.080;9.476;2023-02-21T05:24:27;1.73;;;0.75;;
42478;SDS011;28110;47.080;9.476;2023-02-21T05:26:53;0.70;;;0.50;;
42478;SDS011;28110;47.080;9.476;2023-02-21T05:29:20;2.97;;;0.60;;
42478;SDS011;28110;47.080;9.476;2023-02-21T05:31:46;2.83;;;0.60;;
42478;SDS011;28110;47.080;9.476;2023-02-21T05:34:11;1.07;;;0.57;;
42478;SDS011;28110;47.080;9.476;2023-02-21T05:36:38;1.65;;;0.60;;
42478;SDS011;28110;47.080;9.476;2023-02-21T05:39:04;2.60;;;0.70;;
42478;SDS011;28110;47.080;9.476;2023-02-21T05:41:31;1.10;;;0.70;;
42478;SDS011;28110;47.080;9.476;2023-02-21T05:43:56;1.27;;;0.60;;
42478;SDS011;28110;47.080;9.476;2023-02-21T05:46:26;1.23;;;0.50;;
42478;SDS011;28110;47.080;9.476;2023-02-21T05:48:54;0.88;;;0.43;;
42478;SDS011;28110;47.080;9.476;2023-02-21T05:51:21;1.23;;;0.63;;
42478;SDS011;28110;47.080;9.476;2023-02-21T05:53:47;1.13;;;0.50;;
42478;SDS011;28110;47.080;9.476;2023-02-21T05:56:13;1.10;;;0.50;;
42478;SDS011;28110;47.080;9.476;2023-02-21T05:58:39;2.03;;;0.70;;
42478;SDS011;28110;47.080;9.476;2023-02-21T06:01:05;2.90;;;0.50;;
42478;SDS011;28110;47.080;9.476;2023-02-21T06:03:30;0.83;;;0.50;;
42478;SDS011;28110;47.080;9.476;2023-02-21T06:05:57;1.73;;;0.65;;
42478;SDS011;28110;47.080;9.476;2023-02-21T06:08:23;1.92;;;0.80;;
42478;SDS011;28110;47.080;9.476;2023-02-21T06:10:49;0.85;;;0.50;;
42478;SDS011;28110;47.080;9.476;2023-02-21T06:13:14;1.53;;;0.70;;
42478;SDS011;28110;47.080;9.476;2023-02-21T06:15:40;2.57;;;0.60;;
42478;SDS011;28110;47.080;9.476;2023-02-21T06:18:06;1.85;;;1.10;;
42478;SDS011;28110;47.080;9.476;2023-02-21T06:20:31;3.23;;;0.90;;
42478;SDS011;28110;47.080;9.476;2023-02-21T06:22:57;1.42;;;0.77;;
42478;SDS011;28110;47.080;9.476;2023-02-21T06:25:22;1.83;;;0.70;;
42478;SDS011;28110;47.080;9.476;2023-02-21T06:27:48;1.23;;;0.70;;
42478;SDS011;28110;47.080;9.476;2023-02-21T06:30:13;3.45;;;0.88;;
42478;SDS011;28110;47.080;9.476;2023-02-21T06:32:40;3.13;;;1.17;;
42478;SDS011;28110;47.080;9.476;2023-02-21T06:35:06;2.60;;;1.02;;
42478;SDS011;28110;47.080;9.476;2023-02-21T06:37:32;1.85;;;1.00;;
42478;SDS011;28110;47.080;9.476;2023-02-21T06:39:58;5.23;;;1.30;;
42478;SDS011;28110;47.080;9.476;2023-02-21T06:42:23;7.05;;;1.15;;
42478;SDS011;28110;47.080;9.476;2023-02-21T06:44:49;2.50;;;1.03;;
42478;SDS011;28110;47.080;9.476;2023-02-21T06:47:15;8.87;;;1.33;;
42478;SDS011;28110;47.080;9.476;2023-02-21T06:49:41;2.45;;;1.00;;
42478;SDS011;28110;47.080;9.476;2023-02-21T06:52:07;4.35;;;1.33;;
42478;SDS011;28110;47.080;9.476;2023-02-21T06:54:33;4.63;;;1.50;;
42478;SDS011;28110;47.080;9.476;2023-02-21T06:56:59;6.07;;;1.50;;
42478;SDS011;28110;47.080;9.476;2023-02-21T06:59:25;6.53;;;2.08;;
42478;SDS011;28110;47.080;9.476;2023-02-21T07:01:51;7.85;;;2.20;;
42478;SDS011;28110;47.080;9.476;2023-02-21T07:04:17;6.23;;;2.67;;
42478;SDS011;28110;47.080;9.476;2023-02-21T07:06:42;3.70;;;2.00;;
42478;SDS011;28110;47.080;9.476;2023-02-21T07:09:08;7.03;;;2.38;;
42478;SDS011;28110;47.080;9.476;2023-02-21T07:11:34;7.03;;;2.40;;
42478;SDS011;28110;47.080;9.476;2023-02-21T07:13:59;5.07;;;1.90;;
42478;SDS011;28110;47.080;9.476;2023-02-21T07:16:26;4.63;;;1.92;;
42478;SDS011;28110;47.080;9.476;2023-02-21T07:18:51;12.07;;;2.00;;
42478;SDS011;28110;47.080;9.476;2023-02-21T07:21:17;7.93;;;1.70;;
42478;SDS011;28110;47.080;9.476;2023-02-21T07:23:44;4.87;;;1.90;;
42478;SDS011;28110;47.080;9.476;2023-02-21T07:26:11;6.35;;;2.13;;
42478;SDS011;28110;47.080;9.476;2023-02-21T07:28:37;7.72;;;1.80;;
42478;SDS011;28110;47.080;9.476;2023-02-21T07:31:02;8.90;;;1.60;;
42478;SDS011;28110;47.080;9.476;2023-02-21T07:33:28;10.53;;;1.63;;
42478;SDS011;28110;47.080;9.476;2023-02-21T07:35:54;8.70;;;3.50;;
42478;SDS011;28110;47.080;9.476;2023-02-21T07:38:21;7.87;;;3.10;;
42478;SDS011;28110;47.080;9.476;2023-02-21T07:40:48;7.03;;;2.60;;
42478;SDS011;28110;47.080;9.476;2023-02-21T07:43:14;6.35;;;3.03;;
42478;SDS011;28110;47.080;9.476;2023-02-21T07:45:40;10.55;;;3.20;;
42478;SDS011;28110;47.080;9.476;2023-02-21T07:48:06;13.00;;;5.20;;
42478;SDS011;28110;47.080;9.476;2023-02-21T07:50:32;15.15;;;5.63;;
42478;SDS011;28110;47.080;9.476;2023-02-21T07:52:57;15.47;;;6.07;;
42478;SDS011;28110;47.080;9.476;2023-02-21T07:55:23;9.88;;;4.75;;
42478;SDS011;28110;47.080;9.476;2023-02-21T07:57:50;8.93;;;3.60;;
42478;SDS011;28110;47.080;9.476;2023-02-21T08:00:16;7.95;;;3.58;;
42478;SDS011;28110;47.080;9.476;2023-02-21T08:02:45;10.98;;;3.33;;
42478;SDS011;28110;47.080;9.476;2023-02-21T08:05:13;14.80;;;4.65;;
42478;SDS011;28110;47.080;9.476;2023-02-21T08:07:39;12.05;;;4.40;;
42478;SDS011;28110;47.080;9.476;2023-02-21T08:10:05;9.57;;;4.30;;
42478;SDS011;28110;47.080;9.476;2023-02-21T08:12:31;8.47;;;2.93;;
42478;SDS011;28110;47.080;9.476;2023-02-21T08:14:56;11.13;;;3.10;;
42478;SDS011;28110;47.080;9.476;2023-02-21T08:17:22;6.00;;;2.77;;
42478;SDS011;28110;47.080;9.476;2023-02-21T08:19:47;10.87;;;2.63;;
42478;SDS011;28110;47.080;9.476;2023-02-21T08:22:13;10.10;;;2.53;;
42478;SDS011;28110;47.080;9.476;2023-02-21T08:24:39;9.73;;;3.17;;
42478;SDS011;28110;47.080;9.476;2023-02-21T08:27:04;7.83;;;2.40;;
42478;SDS011;28110;47.080;9.476;2023-02-21T08:29:30;9.68;;;2.40;;
42478;SDS011;28110;47.080;9.476;2023-02-21T08:31:55;9.97;;;2.37;;
42478;SDS011;28110;47.080;9.476;2023-02-21T08:34:21;12.40;;;2.27;;
42478;SDS011;28110;47.080;9.476;2023-02-21T08:36:48;6.45;;;2.05;;
42478;SDS011;28110;47.080;9.476;2023-02-21T08:39:14;8.15;;;1.80;;
42478;SDS011;28110;47.080;9.476;2023-02-21T08:41:41;11.33;;;2.17;;
42478;SDS011;28110;47.080;9.476;2023-02-21T08:44:12;4.13;;;1.40;;
42478;SDS011;28110;47.080;9.476;2023-02-21T08:46:42;3.38;;;1.70;;
42478;SDS011;28110;47.080;9.476;2023-02-21T08:49:08;7.95;;;2.05;;
42478;SDS011;28110;47.080;9.476;2023-02-21T08:51:34;3.45;;;0.88;;
42478;SDS011;28110;47.080;9.476;2023-02-21T08:54:00;4.03;;;0.80;;
42478;SDS011;28110;47.080;9.476;2023-02-21T08:56:27;12.93;;;1.20;;
42478;SDS011;28110;47.080;9.476;2023-02-21T08:58:54;7.80;;;0.60;;
42478;SDS011;28110;47.080;9.476;2023-02-21T09:01:20;6.28;;;0.70;;
42478;SDS011;28110;47.080;9.476;2023-02-21T09:03:47;8.98;;;1.10;;
42478;SDS011;28110;47.080;9.476;2023-02-21T09:06:14;3.60;;;0.60;;
42478;SDS011;28110;47.080;9.476;2023-02-21T09:08:40;3.55;;;0.80;;
42478;SDS011;28110;47.080;9.476;2023-02-21T09:11:06;7.40;;;0.80;;
42478;SDS011;28110;47.080;9.476;2023-02-21T09:13:32;8.73;;;1.10;;
42478;SDS011;28110;47.080;9.476;2023-02-21T09:15:59;4.93;;;1.30;;
42478;SDS011;28110;47.080;9.476;2023-02-21T09:18:26;3.85;;;0.80;;
42478;SDS011;28110;47.080;9.476;2023-02-21T09:20:53;5.57;;;0.80;;
42478;SDS011;28110;47.080;9.476;2023-02-21T09:23:21;4.30;;;1.20;;
42478;SDS011;28110;47.080;9.476;2023-02-21T09:25:47;2.40;;;0.80;;
42478;SDS011;28110;47.080;9.476;2023-02-21T09:28:13;6.22;;;1.80;;
42478;SDS011;28110;47.080;9.476;2023-02-21T09:30:39;8.70;;;1.75;;
42478;SDS011;28110;47.080;9.476;2023-02-21T09:33:05;11.85;;;1.45;;
42478;SDS011;28110;47.080;9.476;2023-02-21T09:35:31;9.90;;;1.50;;
42478;SDS011;28110;47.080;9.476;2023-02-21T09:37:57;6.20;;;1.60;;
42478;SDS011;28110;47.080;9.476;2023-02-21T09:40:39;7.05;;;1.10;;
42478;SDS011;28110;47.080;9.476;2023-02-21T09:43:11;7.55;;;2.40;;
42478;SDS011;28110;47.080;9.476;2023-02-21T09:45:50;7.38;;;0.82;;
42478;SDS011;28110;47.080;9.476;2023-02-21T09:48:21;7.55;;;1.10;;
42478;SDS011;28110;47.080;9.476;2023-02-21T09:50:49;4.20;;;1.05;;
42478;SDS011;28110;47.080;9.476;2023-02-21T09:53:19;14.93;;;1.30;;
42478;SDS011;28110;47.080;9.476;2023-02-21T09:55:49;7.47;;;1.20;;
42478;SDS011;28110;47.080;9.476;2023-02-21T09:58:17;5.55;;;1.40;;
42478;SDS011;28110;47.080;9.476;2023-02-21T10:00:44;9.05;;;0.93;;
42478;SDS011;28110;47.080;9.476;2023-02-21T10:09:20;2.67;;;0.98;;
42478;SDS011;28110;47.080;9.476;2023-02-21T10:15:02;3.47;;;1.00;;
42478;SDS011;28110;47.080;9.476;2023-02-21T10:18:14;2.67;;;0.88;;
42478;SDS011;28110;47.080;9.476;2023-02-21T10:20:50;2.25;;;1.10;;
42478;SDS011;28110;47.080;9.476;2023-02-21T10:23:23;9.90;;;1.95;;
42478;SDS011;28110;47.080;9.476;2023-02-21T10:25:56;21.73;;;2.03;;
42478;SDS011;28110;47.080;9.476;2023-02-21T10:28:27;7.30;;;0.93;;
42478;SDS011;28110;47.080;9.476;2023-02-21T10:30:55;7.88;;;1.00;;
42478;SDS011;28110;47.080;9.476;2023-02-21T10:33:23;2.17;;;1.10;;
42478;SDS011;28110;47.080;9.476;2023-02-21T10:35:49;4.37;;;1.43;;
42478;SDS011;28110;47.080;9.476;2023-02-21T10:38:19;14.48;;;1.35;;
42478;SDS011;28110;47.080;9.476;2023-02-21T10:40:55;9.50;;;1.30;;
42478;SDS011;28110;47.080;9.476;2023-02-21T10:43:25;7.83;;;1.23;;
42478;SDS011;28110;47.080;9.476;2023-02-21T10:46:04;2.03;;;1.00;;
42478;SDS011;28110;47.080;9.476;2023-02-21T10:48:37;6.47;;;1.23;;
42478;SDS011;28110;47.080;9.476;2023-02-21T10:51:16;7.63;;;1.40;;
42478;SDS011;28110;47.080;9.476;2023-02-21T10:54:16;3.10;;;0.73;;
42478;SDS011;28110;47.080;9.476;2023-02-21T10:56:47;7.30;;;1.47;;
42478;SDS011;28110;47.080;9.476;2023-02-21T10:59:29;8.02;;;1.40;;
42478;SDS011;28110;47.080;9.476;2023-02-21T11:01:57;3.53;;;1.05;;
42478;SDS011;28110;47.080;9.476;2023-02-21T11:04:29;7.03;;;1.50;;
42478;SDS011;28110;47.080;9.476;2023-02-21T11:07:03;5.00;;;1.10;;
42478;SDS011;28110;47.080;9.476;2023-02-21T11:14:45;3.22;;;1.10;;
42478;SDS011;28110;47.080;9.476;2023-02-21T11:17:40;2.78;;;1.17;;
42478;SDS011;28110;47.080;9.476;2023-02-21T11:22:39;3.73;;;0.97;;
42478;SDS011;28110;47.080;9.476;2023-02-21T11:30:35;3.55;;;1.00;;
42478;SDS011;28110;47.080;9.476;2023-02-21T11:33:03;5.28;;;1.13;;
42478;SDS011;28110;47.080;9.476;2023-02-21T11:35:34;2.77;;;1.00;;
42478;SDS011;28110;47.080;9.476;2023-02-21T11:38:07;3.22;;;0.88;;
42478;SDS011;28110;47.080;9.476;2023-02-21T11:40:52;5.63;;;1.38;;
42478;SDS011;28110;47.080;9.476;2023-02-21T11:43:25;3.90;;;1.00;;
42478;SDS011;28110;47.080;9.476;2023-02-21T11:49:14;4.15;;;1.40;;
42478;SDS011;28110;47.080;9.476;2023-02-21T11:52:01;8.63;;;1.67;;
42478;SDS011;28110;47.080;9.476;2023-02-21T11:54:30;3.90;;;1.17;;
42478;SDS011;28110;47.080;9.476;2023-02-21T11:57:07;4.17;;;1.30;;
42478;SDS011;28110;47.080;9.476;2023-02-21T12:31:38;6.97;;;1.40;;
42478;SDS011;28110;47.080;9.476;2023-02-21T12:37:00;2.80;;;1.10;;
42478;SDS011;28110;47.080;9.476;2023-02-21T12:39:53;6.07;;;1.10;;
42478;SDS011;28110;47.080;9.476;2023-02-21T12:42:32;2.92;;;1.20;;
42478;SDS011;28110;47.080;9.476;2023-02-21T12:50:37;5.07;;;1.10;;
42478;SDS011;28110;47.080;9.476;2023-02-21T12:53:11;5.70;;;1.38;;
42478;SDS011;28110;47.080;9.476;2023-02-21T12:55:39;4.63;;;1.50;;
42478;SDS011;28110;47.080;9.476;2023-02-21T13:01:16;3.33;;;1.58;;
42478;SDS011;28110;47.080;9.476;2023-02-21T13:09:35;7.70;;;1.52;;
42478;SDS011;28110;47.080;9.476;2023-02-21T13:14:59;1.92;;;0.85;;
42478;SDS011;28110;47.080;9.476;2023-02-21T13:17:34;2.22;;;0.90;;
42478;SDS011;28110;47.080;9.476;2023-02-21T13:20:01;1.95;;;1.00;;
42478;SDS011;28110;47.080;9.476;2023-02-21T13:22:33;4.63;;;0.75;;
42478;SDS011;28110;47.080;9.476;2023-02-21T13:30:21;3.80;;;1.08;;
42478;SDS011;28110;47.080;9.476;2023-02-21T13:32:57;5.07;;;0.90;;
42478;SDS011;28110;47.080;9.476;2023-02-21T13:35:29;6.03;;;1.30;;
42478;SDS011;28110;47.080;9.476;2023-02-21T13:37:57;2.10;;;1.00;;
42478;SDS011;28110;47.080;9.476;2023-02-21T13:40:31;2.45;;;1.02;;
42478;SDS011;28110;47.080;9.476;2023-02-21T13:43:06;3.53;;;1.10;;
42478;SDS011;28110;47.080;9.476;2023-02-21T13:45:49;4.85;;;1.08;;
42478;SDS011;28110;47.080;9.476;2023-02-21T13:50:45;2.55;;;0.80;;
42478;SDS011;28110;47.080;9.476;2023-02-21T13:53:19;2.60;;;1.00;;
42478;SDS011;28110;47.080;9.476;2023-02-21T13:56:29;3.88;;;0.93;;
42478;SDS011;28110;47.080;9.476;2023-02-21T13:58:43;3.65;;;1.50;;
42478;SDS011;28110;47.080;9.476;2023-02-21T14:01:15;1.73;;;1.10;;
42478;SDS011;28110;47.080;9.476;2023-02-21T14:03:41;5.00;;;1.20;;
42478;SDS011;28110;47.080;9.476;2023-02-21T14:08:35;2.70;;;1.02;;
42478;SDS011;28110;47.080;9.476;2023-02-21T14:13:39;3.92;;;1.30;;
42478;SDS011;28110;47.080;9.476;2023-02-21T14:16:12;4.63;;;1.25;;
42478;SDS011;28110;47.080;9.476;2023-02-21T14:18:48;1.63;;;1.00;;
42478;SDS011;28110;47.080;9.476;2023-02-21T14:23:50;2.65;;;1.00;;
42478;SDS011;28110;47.080;9.476;2023-02-21T14:34:24;5.15;;;1.30;;
42478;SDS011;28110;47.080;9.476;2023-02-21T14:36:56;3.92;;;1.20;;
42478;SDS011;28110;47.080;9.476;2023-02-21T14:39:29;4.57;;;1.20;;
42478;SDS011;28110;47.080;9.476;2023-02-21T14:45:13;4.00;;;1.10;;
42478;SDS011;28110;47.080;9.476;2023-02-21T15:09:44;6.38;;;1.30;;
42478;SDS011;28110;47.080;9.476;2023-02-21T15:12:28;3.20;;;1.27;;
42478;SDS011;28110;47.080;9.476;2023-02-21T15:14:53;2.10;;;1.07;;
42478;SDS011;28110;47.080;9.476;2023-02-21T15:17:20;3.33;;;1.35;;
42478;SDS011;28110;47.080;9.476;2023-02-21T15:19:59;2.28;;;1.35;;
42478;SDS011;28110;47.080;9.476;2023-02-21T15:22:29;3.80;;;1.50;;
42478;SDS011;28110;47.080;9.476;2023-02-21T15:24:56;6.47;;;1.33;;
42478;SDS011;28110;47.080;9.476;2023-02-21T15:30:15;3.67;;;2.25;;
42478;SDS011;28110;47.080;9.476;2023-02-21T15:32:40;4.50;;;1.60;;
42478;SDS011;28110;47.080;9.476;2023-02-21T15:35:10;4.75;;;1.23;;
42478;SDS011;28110;47.080;9.476;2023-02-21T15:37:42;3.97;;;1.55;;
42478;SDS011;28110;47.080;9.476;2023-02-21T15:40:17;5.68;;;2.80;;
42478;SDS011;28110;47.080;9.476;2023-02-21T15:42:46;10.90;;;7.45;;
42478;SDS011;28110;47.080;9.476;2023-02-21T15:45:24;4.07;;;3.00;;
42478;SDS011;28110;47.080;9.476;2023-02-21T15:47:51;3.78;;;2.30;;
42478;SDS011;28110;47.080;9.476;2023-02-21T15:50:37;4.25;;;1.30;;
42478;SDS011;28110;47.080;9.476;2023-02-21T15:53:23;4.45;;;1.20;;
42478;SDS011;28110;47.080;9.476;2023-02-21T15:55:49;4.60;;;1.10;;
42478;SDS011;28110;47.080;9.476;2023-02-21T15:58:21;4.93;;;0.90;;
42478;SDS011;28110;47.080;9.476;2023-02-21T16:01:10;3.33;;;1.10;;
42478;SDS011;28110;47.080;9.476;2023-02-21T16:03:44;2.97;;;1.25;;
42478;SDS011;28110;47.080;9.476;2023-02-21T16:06:21;3.83;;;1.00;;
42478;SDS011;28110;47.080;9.476;2023-02-21T16:11:26;2.17;;;1.00;;
42478;SDS011;28110;47.080;9.476;2023-02-21T16:14:03;3.40;;;1.35;;
42478;SDS011;28110;47.080;9.476;2023-02-21T16:16:35;4.93;;;1.38;;
42478;SDS011;28110;47.080;9.476;2023-02-21T16:19:01;2.35;;;0.80;;
42478;SDS011;28110;47.080;9.476;2023-02-21T16:21:27;8.73;;;1.13;;
42478;SDS011;28110;47.080;9.476;2023-02-21T16:23:53;8.35;;;1.30;;
42478;SDS011;28110;47.080;9.476;2023-02-21T16:26:24;4.20;;;1.10;;
42478;SDS011;28110;47.080;9.476;2023-02-21T16:28:52;7.03;;;1.83;;
42478;SDS011;28110;47.080;9.476;2023-02-21T16:31:26;4.32;;;1.85;;
42478;SDS011;28110;47.080;9.476;2023-02-21T16:33:54;9.07;;;2.10;;
42478;SDS011;28110;47.080;9.476;2023-02-21T16:36:30;5.47;;;2.22;;
42478;SDS011;28110;47.080;9.476;2023-02-21T16:38:56;9.15;;;1.75;;
42478;SDS011;28110;47.080;9.476;2023-02-21T16:41:22;3.08;;;1.40;;
42478;SDS011;28110;47.080;9.476;2023-02-21T16:43:49;12.65;;;2.13;;
42478;SDS011;28110;47.080;9.476;2023-02-21T16:46:15;5.75;;;1.77;;
42478;SDS011;28110;47.080;9.476;2023-02-21T16:48:48;6.38;;;2.65;;
42478;SDS011;28110;47.080;9.476;2023-02-21T16:51:16;8.55;;;3.13;;
42478;SDS011;28110;47.080;9.476;2023-02-21T16:53:42;2.65;;;1.20;;
42478;SDS011;28110;47.080;9.476;2023-02-21T16:56:07;3.55;;;0.90;;
42478;SDS011;28110;47.080;9.476;2023-02-21T16:58:37;2.40;;;0.87;;
42478;SDS011;28110;47.080;9.476;2023-02-21T17:01:07;2.78;;;1.80;;
42478;SDS011;28110;47.080;9.476;2023-02-21T17:03:39;4.45;;;1.38;;
42478;SDS011;28110;47.080;9.476;2023-02-21T17:06:06;6.03;;;1.30;;
42478;SDS011;28110;47.080;9.476;2023-02-21T17:08:32;3.42;;;1.30;;
42478;SDS011;28110;47.080;9.476;2023-02-21T17:10:57;3.30;;;1.42;;
42478;SDS011;28110;47.080;9.476;2023-02-21T17:13:23;8.10;;;2.73;;
42478;SDS011;28110;47.080;9.476;2023-02-21T17:15:49;8.75;;;3.38;;
42478;SDS011;28110;47.080;9.476;2023-02-21T17:18:15;14.10;;;5.43;;
42478;SDS011;28110;47.080;9.476;2023-02-21T17:20:41;15.40;;;6.88;;
42478;SDS011;28110;47.080;9.476;2023-02-21T17:23:06;13.53;;;6.10;;
42478;SDS011;28110;47.080;9.476;2023-02-21T17:25:32;12.43;;;4.87;;
42478;SDS011;28110;47.080;9.476;2023-02-21T17:28:00;7.38;;;3.80;;
42478;SDS011;28110;47.080;9.476;2023-02-21T17:30:26;4.20;;;1.90;;
42478;SDS011;28110;47.080;9.476;2023-02-21T17:32:51;4.40;;;1.87;;
42478;SDS011;28110;47.080;9.476;2023-02-21T17:35:19;4.13;;;1.55;;
42478;SDS011;28110;47.080;9.476;2023-02-21T17:37:46;3.38;;;1.10;;
42478;SDS011;28110;47.080;9.476;2023-02-21T17:40:13;4.10;;;1.25;;
42478;SDS011;28110;47.080;9.476;2023-02-21T17:42:41;3.58;;;1.40;;
42478;SDS011;28110;47.080;9.476;2023-02-21T17:45:07;4.43;;;1.45;;
42478;SDS011;28110;47.080;9.476;2023-02-21T17:47:33;2.80;;;1.40;;
42478;SDS011;28110;47.080;9.476;2023-02-21T17:49:59;3.65;;;1.63;;
42478;SDS011;28110;47.080;9.476;2023-02-21T17:52:27;15.00;;;5.90;;
42478;SDS011;28110;47.080;9.476;2023-02-21T17:54:53;5.90;;;3.20;;